الصفحة الرئيسية
METAR-TAF:

METAR-TAF

مطار :

ناتال, ريو غراندي دو نورتي, البرازيل

دائرة عرض: 05-46-05S, خط طول: 035-22-34W, ارتفاع: 88 متر

مراقبة الطقس الحالي

تاريخ ووقت الإصدار 24 دقيقة قبل الساعة 03:00UTC
ريح 4 عقدة من الجنوب
درجة الحرارة 24°درجة مئوية
الرطوبة 89%
ضغط 1014 hPa
الرؤية 10 كم أو أكثر
غيوم قليلة على ارتفاع 2100 قدم

METAR: SBSG 240300Z 17004KT 9999 FEW021 24/22 Q1014

زمن: 00:24 (03:24 UTC)

توقعات

تاريخ ووقت الإصدار 5ساعات و 24 دقيقة قبل الساعة 22:00UTC
التوقعات صالحة من24 الساعة 00 UTC إلى 24 الساعة 24 UTC
ريح 5 عقدة من الجنوب/الجنوب الغربي
الرؤية 10 كم أو أكثر
غيوم متفرقة على ارتفاع 2000 قدم
أصبح
من 24 الساعة 10 UTC إلى 24 الساعة 12 UTC
ريح 13 عقدة من الجنوب/الجنوب الشرقي
غيوم مفككة على ارتفاع 2500 قدم
أصبح
من 24 الساعة 15 UTC إلى 24 الساعة 17 UTC
غيوم متفرقة على ارتفاع 3000 قدم
أصبح
من 24 الساعة 21 UTC إلى 24 الساعة 22 UTC
ريح 6 عقدة من الجنوب

TAF: SBSG 232200Z 2400/2424 20005KT 9999 SCT020 TN22/2408Z TX30/2415Z BECMG 2410/2412 16013KT BKN025 BECMG 2415/2417 SCT030 BECMG 2421/2422 18006KT RMK PEA

أرصاد الطقس والتوقعات من أكثر من 4000 مطار (تقارير الطقس للمطار METAR والتنبؤ بالطقس بالمطارTAF).

المحطات المتاحة هي النقط الصفراء والحمراء على الخريطة.

حرك المؤشر فوق النقطة لمعرفة اسم المحطة.

ثم انقر لمعرفة أرصاد وتوقعات الطقس.

لتغيير الخارطة: اضغط على الأزرار الخضراء مع رمز الصليب الأسود للتكبير. على الزر الأخضر مع شرطة للتصغير، أو على الأسهم الخضراء للخرائط المجاورة.


METAR-TAF: